createdAt,value
2023-05-12T00:01:16.871Z,97894.81
2023-05-12T00:03:44.168Z,97872.31
2023-05-12T00:06:11.591Z,97883.09
2023-05-12T00:08:38.621Z,97883.22
2023-05-12T00:11:05.542Z,97877.56
2023-05-12T00:13:32.461Z,97884.34
2023-05-12T00:15:59.501Z,97879.50
2023-05-12T00:18:28.428Z,97882.47
2023-05-12T00:20:55.773Z,97870.12
2023-05-12T00:23:23.005Z,97860.63
2023-05-12T00:25:50.558Z,97876.00
2023-05-12T00:28:18.849Z,97877.16
2023-05-12T00:30:46.004Z,97879.94
2023-05-12T00:33:13.276Z,97883.13
2023-05-12T00:35:40.212Z,97881.41
2023-05-12T00:38:07.074Z,97892.81
2023-05-12T00:40:33.727Z,97896.56
2023-05-12T00:43:00.712Z,97886.06
2023-05-12T00:45:29.689Z,97887.63
2023-05-12T00:47:57.161Z,97878.81
2023-05-12T00:50:24.334Z,97882.13
2023-05-12T00:52:51.350Z,97870.94
2023-05-12T00:55:18.240Z,97879.38
2023-05-12T00:57:45.766Z,97880.16
2023-05-12T01:00:13.238Z,97874.25
2023-05-12T01:02:40.302Z,97849.75
2023-05-12T01:05:07.728Z,97880.31
2023-05-12T01:07:34.638Z,97877.34
2023-05-12T01:10:01.544Z,97873.34
2023-05-12T01:12:28.638Z,97877.91
2023-05-12T01:14:56.554Z,97875.00
2023-05-12T01:17:29.106Z,97871.75
2023-05-12T01:20:00.844Z,97866.19
2023-05-12T01:22:31.702Z,97885.16
2023-05-12T01:25:06.981Z,97878.16
2023-05-12T01:27:34.529Z,97880.25
2023-05-12T01:30:03.321Z,97872.84
2023-05-12T01:32:30.704Z,97885.50
2023-05-12T01:34:57.685Z,97871.78
2023-05-12T01:37:27.321Z,97870.31
2023-05-12T01:39:54.842Z,97870.28
2023-05-12T01:42:21.866Z,97854.97
2023-05-12T01:44:48.748Z,97882.94
2023-05-12T01:47:16.158Z,97866.13
2023-05-12T01:49:43.063Z,97870.44
2023-05-12T01:52:09.734Z,97868.16
2023-05-12T01:54:36.604Z,97875.41
2023-05-12T01:57:03.543Z,97867.50
2023-05-12T01:59:30.363Z,97872.59
2023-05-12T02:01:57.122Z,97862.50
2023-05-12T02:04:24.029Z,97872.38
2023-05-12T02:06:52.024Z,97862.19
2023-05-12T02:09:18.924Z,97863.88
2023-05-12T02:11:45.804Z,97865.16
2023-05-12T02:14:12.690Z,97867.25
2023-05-12T02:16:39.532Z,97855.03
2023-05-12T02:19:06.585Z,97858.72
2023-05-12T02:21:33.764Z,97847.19
2023-05-12T02:24:00.804Z,97848.34
2023-05-12T02:26:27.718Z,97863.16
2023-05-12T02:28:54.670Z,97864.53
2023-05-12T02:31:21.523Z,97864.41
2023-05-12T02:33:48.665Z,97870.81
2023-05-12T02:36:15.518Z,97859.81
2023-05-12T02:38:42.243Z,97855.44
2023-05-12T02:41:09.076Z,97847.66
2023-05-12T02:43:35.777Z,97851.03
2023-05-12T02:46:02.875Z,97868.25
2023-05-12T02:48:29.738Z,97859.13
2023-05-12T02:50:56.391Z,97861.22
2023-05-12T02:53:23.268Z,97865.09
2023-05-12T02:55:50.323Z,97854.34
2023-05-12T02:58:17.207Z,97866.81
2023-05-12T03:00:44.158Z,97870.16
2023-05-12T03:03:11.296Z,97857.94
2023-05-12T03:05:38.343Z,97852.41
2023-05-12T03:08:05.444Z,97866.94
2023-05-12T03:10:32.277Z,97858.59
2023-05-12T03:12:58.935Z,97868.25
2023-05-12T03:15:25.758Z,97849.13
2023-05-12T03:17:52.457Z,97862.59
2023-05-12T03:20:19.907Z,97851.66
2023-05-12T03:22:47.078Z,97851.84
2023-05-12T03:25:14.294Z,97865.84
2023-05-12T03:27:41.174Z,97857.34
2023-05-12T03:30:08.649Z,97859.94
2023-05-12T03:32:35.558Z,97856.84
2023-05-12T03:35:02.518Z,97859.75
2023-05-12T03:37:29.388Z,97863.69
2023-05-12T03:39:56.357Z,97872.16
2023-05-12T03:42:26.269Z,97868.50
2023-05-12T03:44:53.149Z,97867.16
2023-05-12T03:47:20.084Z,97871.88
2023-05-12T03:49:47.008Z,97870.47
2023-05-12T03:52:14.236Z,97877.78
2023-05-12T03:54:41.155Z,97859.22
2023-05-12T03:57:08.333Z,97878.22
2023-05-12T03:59:35.235Z,97866.37
2023-05-12T04:02:02.290Z,97855.53
2023-05-12T04:04:29.214Z,97874.28
2023-05-12T04:06:56.428Z,97879.75
2023-05-12T04:09:23.298Z,97879.47
2023-05-12T04:11:50.169Z,97885.97
2023-05-12T04:14:17.006Z,97888.81
2023-05-12T04:16:43.736Z,97872.84
2023-05-12T04:19:10.727Z,97886.06
2023-05-12T04:21:37.586Z,97872.22
2023-05-12T04:24:04.397Z,97886.81
2023-05-12T04:26:31.249Z,97882.63
2023-05-12T04:28:57.872Z,97884.72
2023-05-12T04:31:24.859Z,97887.09
2023-05-12T04:33:52.111Z,97883.47
2023-05-12T04:36:19.140Z,97893.25
2023-05-12T04:38:45.999Z,97889.13
2023-05-12T04:41:12.693Z,97874.41
2023-05-12T04:46:09.341Z,97884.53
2023-05-12T04:48:42.095Z,97896.16
2023-05-12T04:51:09.313Z,97890.31
2023-05-12T04:53:36.476Z,97893.53
2023-05-12T04:56:03.880Z,97899.56
2023-05-12T04:58:30.745Z,97869.16
2023-05-12T05:00:57.709Z,97894.91
2023-05-12T05:03:24.912Z,97892.97
2023-05-12T05:05:51.879Z,97878.97
2023-05-12T05:08:18.867Z,97896.78
2023-05-12T05:10:45.805Z,97903.84
2023-05-12T05:13:12.613Z,97902.56
2023-05-12T05:15:39.315Z,97895.91
2023-05-12T05:18:06.321Z,97894.66
2023-05-12T05:20:34.729Z,97893.06
2023-05-12T05:23:01.743Z,97906.00
2023-05-12T05:25:28.509Z,97907.03
2023-05-12T05:27:55.927Z,97902.06
2023-05-12T05:30:22.820Z,97915.63
2023-05-12T05:32:49.844Z,97907.63
2023-05-12T05:35:16.950Z,97927.37
2023-05-12T05:37:43.860Z,97916.22
2023-05-12T05:40:10.889Z,97916.66
2023-05-12T05:42:37.813Z,97917.56
2023-05-12T05:45:05.096Z,97932.03
2023-05-12T05:47:32.424Z,97928.09
2023-05-12T05:52:05.290Z,97936.31
2023-05-12T05:54:32.132Z,97936.31
2023-05-12T05:57:00.838Z,97922.81
2023-05-12T05:59:27.716Z,97933.50
2023-05-12T06:01:54.658Z,97931.28
2023-05-12T06:04:21.734Z,97938.28
2023-05-12T06:06:48.742Z,97934.19
2023-05-12T06:09:16.824Z,97933.81
2023-05-12T06:11:43.663Z,97947.19
2023-05-12T06:14:12.671Z,97956.56
2023-05-12T06:16:39.880Z,97946.94
2023-05-12T06:19:06.905Z,97944.63
2023-05-12T06:21:33.987Z,97955.53
2023-05-12T06:24:00.882Z,97951.34
2023-05-12T06:26:27.699Z,97958.84
2023-05-12T06:28:56.380Z,97954.06
2023-05-12T06:31:23.330Z,97968.63
2023-05-12T06:33:50.289Z,97970.56
2023-05-12T06:49:19.289Z,97986.34
2023-05-12T06:51:46.698Z,97986.34
2023-05-12T06:54:13.653Z,97972.66
2023-05-12T06:56:40.529Z,97984.44
2023-05-12T06:59:07.419Z,97984.88
2023-05-12T07:01:34.415Z,97981.34
2023-05-12T07:04:01.425Z,97983.59
2023-05-12T07:06:28.326Z,97980.63
2023-05-12T07:08:56.327Z,97993.00
2023-05-12T07:11:23.413Z,97993.03
2023-05-12T07:13:50.980Z,97989.16
2023-05-12T07:16:19.038Z,97982.47
2023-05-12T07:18:46.479Z,97979.06
2023-05-12T07:21:13.532Z,97990.03
2023-05-12T07:23:40.737Z,97983.34
2023-05-12T07:26:08.175Z,97990.53
2023-05-12T07:28:36.817Z,97987.47
2023-05-12T07:31:07.608Z,97996.37
2023-05-12T07:33:35.623Z,97994.63
2023-05-12T07:36:02.943Z,97997.50
2023-05-12T07:38:32.338Z,97997.28
2023-05-12T07:41:00.781Z,97997.28
2023-05-12T07:43:27.775Z,98003.59
2023-05-12T07:45:56.248Z,97996.37
2023-05-12T07:48:23.151Z,98008.94
2023-05-12T07:50:49.976Z,98017.59
2023-05-12T07:53:16.662Z,98024.28
2023-05-12T07:55:44.230Z,98011.44
2023-05-12T07:58:12.480Z,98012.34
2023-05-12T08:00:39.688Z,98020.00
2023-05-12T08:03:07.830Z,98024.34
2023-05-12T08:05:34.815Z,98024.59
2023-05-12T08:08:01.716Z,98025.88
2023-05-12T08:10:30.074Z,98032.31
2023-05-12T08:12:57.151Z,98028.28
2023-05-12T08:15:24.144Z,98041.31
2023-05-12T08:17:51.016Z,98038.38
2023-05-12T08:20:17.886Z,98031.12
2023-05-12T08:22:44.823Z,98038.75
2023-05-12T08:25:12.687Z,98027.03
2023-05-12T08:27:39.793Z,98021.78
2023-05-12T08:30:07.216Z,98021.94
2023-05-12T08:32:34.163Z,98023.59
2023-05-12T08:35:01.522Z,98021.06
2023-05-12T08:37:28.398Z,98029.81
2023-05-12T08:39:57.930Z,98036.63
2023-05-12T08:42:31.886Z,98029.69
2023-05-12T08:45:00.739Z,98030.47
2023-05-12T08:47:27.712Z,98036.44
2023-05-12T08:50:03.355Z,98043.34
2023-05-12T08:52:34.795Z,98029.97
2023-05-12T08:55:03.513Z,98031.78
2023-05-12T08:57:31.553Z,98030.84
2023-05-12T09:00:05.501Z,98033.19
2023-05-12T09:02:44.724Z,98034.00
2023-05-12T09:05:19.378Z,98031.78
2023-05-12T09:07:47.251Z,98032.13
2023-05-12T09:10:33.554Z,98033.53
2023-05-12T09:13:13.229Z,98038.03
2023-05-12T09:15:43.176Z,98028.63
2023-05-12T09:18:10.116Z,98034.19
2023-05-12T09:20:37.182Z,98034.34
2023-05-12T09:23:20.463Z,98038.81
2023-05-12T09:25:47.469Z,98032.69
2023-05-12T09:28:14.776Z,98044.38
2023-05-12T09:30:42.847Z,98046.44
2023-05-12T09:33:11.798Z,98041.69
2023-05-12T09:35:42.951Z,98051.72
2023-05-12T09:38:11.843Z,98048.44
2023-05-12T09:40:38.951Z,98047.66
2023-05-12T09:43:06.210Z,98041.69
2023-05-12T09:45:36.979Z,98052.50
2023-05-12T09:48:11.653Z,98040.34
2023-05-12T09:50:48.761Z,98044.88
2023-05-12T09:53:17.990Z,98049.47
2023-05-12T09:55:46.249Z,98051.56
2023-05-12T09:58:16.904Z,98046.78
2023-05-12T10:01:12.976Z,98042.59
2023-05-12T10:03:32.329Z,98048.03
2023-05-12T10:06:01.721Z,98051.94
2023-05-12T10:08:38.352Z,98052.09
2023-05-12T10:11:06.974Z,98046.53
2023-05-12T10:13:34.241Z,98061.91
2023-05-12T10:16:01.730Z,98051.38
2023-05-12T10:18:28.602Z,98036.66
2023-05-12T10:20:56.905Z,98058.97
2023-05-12T10:23:23.857Z,98057.25
2023-05-12T10:25:50.905Z,98047.88
2023-05-12T10:28:17.881Z,98046.84
2023-05-12T10:30:45.521Z,98065.31
2023-05-12T10:33:12.704Z,98047.69
2023-05-12T10:35:40.308Z,98052.72
2023-05-12T10:38:20.852Z,98056.13
2023-05-12T10:40:59.456Z,98057.37
2023-05-12T10:43:28.108Z,98043.84
2023-05-12T10:46:13.336Z,98059.31
2023-05-12T10:49:04.465Z,98058.31
2023-05-12T10:51:33.344Z,98050.66
2023-05-12T10:54:07.974Z,98055.22
2023-05-12T10:56:38.417Z,98062.69
2023-05-12T10:59:25.433Z,98055.97
2023-05-12T11:02:15.731Z,98060.62
2023-05-12T11:04:55.719Z,98054.41
2023-05-12T11:07:24.926Z,98060.16
2023-05-12T11:09:57.732Z,98059.13
2023-05-12T11:12:27.427Z,98057.69
2023-05-12T11:14:54.689Z,98066.97
2023-05-12T11:17:21.714Z,98067.97
2023-05-12T11:19:50.667Z,98066.75
2023-05-12T11:22:22.247Z,98059.88
2023-05-12T11:24:50.277Z,98058.91
2023-05-12T11:27:19.637Z,98059.97
2023-05-12T11:30:00.246Z,98070.09
2023-05-12T11:32:27.774Z,98062.78
2023-05-12T11:34:54.785Z,98061.25
2023-05-12T11:37:22.555Z,98068.41
2023-05-12T11:39:49.528Z,98060.88
2023-05-12T11:42:20.063Z,98079.94
2023-05-12T11:44:48.592Z,98079.13
2023-05-12T11:47:16.740Z,98085.91
2023-05-12T11:49:54.836Z,98077.38
2023-05-12T11:52:23.718Z,98086.81
2023-05-12T11:54:57.585Z,98077.16
2023-05-12T11:57:28.669Z,98087.47
2023-05-12T12:00:08.039Z,98073.91
2023-05-12T12:02:36.944Z,98081.03
2023-05-12T12:05:07.863Z,98080.75
2023-05-12T12:07:36.968Z,98079.97
2023-05-12T12:10:16.914Z,98089.00
2023-05-12T12:12:44.600Z,98091.38
2023-05-12T12:15:12.234Z,98086.00
2023-05-12T12:17:40.207Z,98087.50
2023-05-12T12:20:08.505Z,98091.00
2023-05-12T12:22:35.638Z,98091.22
2023-05-12T12:25:03.649Z,98097.72
2023-05-12T12:27:30.692Z,98098.75
2023-05-12T12:29:57.561Z,98104.81
2023-05-12T12:32:24.504Z,98098.66
2023-05-12T12:34:52.057Z,98100.25
2023-05-12T12:37:18.984Z,98099.75
2023-05-12T12:39:48.222Z,98100.16
2023-05-12T12:42:18.275Z,98097.75
2023-05-12T12:44:46.273Z,98100.16
2023-05-12T12:47:13.702Z,98100.56
2023-05-12T12:49:40.648Z,98084.31
2023-05-12T12:52:07.795Z,98100.75
2023-05-12T12:54:35.054Z,98097.00
2023-05-12T12:57:01.921Z,98101.88
2023-05-12T12:59:29.791Z,98093.78
2023-05-12T13:02:00.112Z,98109.53
2023-05-12T13:04:27.291Z,98093.56
2023-05-12T13:06:54.144Z,98090.13
2023-05-12T13:09:23.676Z,98091.88
2023-05-12T13:11:54.202Z,98100.31
2023-05-12T13:16:57.152Z,98087.41
2023-05-12T13:22:57.167Z,98096.16
2023-05-12T13:25:30.248Z,98093.56
2023-05-12T13:27:57.349Z,98093.06
2023-05-12T13:30:27.493Z,98090.31
2023-05-12T13:33:00.414Z,98083.62
2023-05-12T13:35:27.500Z,98088.78
2023-05-12T13:43:07.607Z,98105.56
2023-05-12T13:45:34.755Z,98087.47
2023-05-12T13:48:01.773Z,98098.78
2023-05-12T13:50:28.641Z,98086.00
2023-05-12T13:52:55.520Z,98111.56
2023-05-12T13:55:22.503Z,98106.38
2023-05-12T13:57:49.539Z,98112.81
2023-05-12T14:00:19.780Z,98115.12
2023-05-12T14:02:46.765Z,98105.97
2023-05-12T14:05:13.755Z,98089.81
2023-05-12T14:07:42.732Z,98123.94
2023-05-12T14:10:10.532Z,98122.38
2023-05-12T14:12:37.413Z,98128.47
2023-05-12T14:15:19.902Z,98118.50
2023-05-12T14:17:51.628Z,98121.62
2023-05-12T14:20:18.536Z,98118.75
2023-05-12T14:22:45.405Z,98128.19
2023-05-12T14:25:12.233Z,98122.75
2023-05-12T14:27:39.017Z,98133.22
2023-05-12T14:30:07.737Z,98131.56
2023-05-12T14:32:34.693Z,98128.81
2023-05-12T14:35:01.575Z,98118.72
2023-05-12T14:37:28.457Z,98126.00
2023-05-12T14:39:56.826Z,98136.06
2023-05-12T14:42:23.960Z,98123.38
2023-05-12T14:44:50.814Z,98117.22
2023-05-12T14:47:17.976Z,98124.00
2023-05-12T14:49:46.208Z,98129.12
2023-05-12T14:52:13.081Z,98127.34
2023-05-12T14:54:39.963Z,98134.13
2023-05-12T14:57:07.187Z,98127.19
2023-05-12T14:59:35.078Z,98127.34
2023-05-12T15:02:02.127Z,98131.97
2023-05-12T15:04:29.034Z,98129.72
2023-05-12T15:06:55.919Z,98129.72
2023-05-12T15:09:23.881Z,98128.28
2023-05-12T15:11:51.702Z,98135.59
2023-05-12T15:14:18.620Z,98131.75
2023-05-12T15:16:45.517Z,98133.53
2023-05-12T15:19:14.228Z,98129.16
2023-05-12T15:21:44.317Z,98126.09
2023-05-12T15:24:11.173Z,98131.63
2023-05-12T15:26:40.274Z,98125.31
2023-05-12T15:29:07.586Z,98134.13
2023-05-12T15:31:35.275Z,98136.94
2023-05-12T15:34:02.236Z,98144.25
2023-05-12T15:36:29.698Z,98132.66
2023-05-12T15:39:03.851Z,98125.53
2023-05-12T15:41:30.838Z,98125.84
2023-05-12T15:43:57.818Z,98128.34
2023-05-12T15:46:24.711Z,98116.16
2023-05-12T15:48:55.095Z,98131.84
2023-05-12T15:51:21.992Z,98125.06
2023-05-12T15:53:51.065Z,98126.37
2023-05-12T15:56:17.931Z,98133.59
2023-05-12T15:58:46.963Z,98148.81
2023-05-12T16:01:14.364Z,98152.31
2023-05-12T16:03:42.758Z,98151.16
2023-05-12T16:06:09.899Z,98153.22
2023-05-12T16:08:38.802Z,98137.62
2023-05-12T16:11:09.679Z,98159.22
2023-05-12T16:13:37.355Z,98147.63
2023-05-12T16:16:06.162Z,98148.72
2023-05-12T16:18:37.522Z,98151.31
2023-05-12T16:21:10.033Z,98149.31
2023-05-12T16:26:20.109Z,98148.53
2023-05-12T16:29:07.072Z,98154.41
2023-05-12T16:31:34.629Z,98166.47
2023-05-12T16:34:03.576Z,98158.97
2023-05-12T16:36:31.955Z,98151.47
2023-05-12T16:38:59.849Z,98159.38
2023-05-12T16:41:28.692Z,98155.78
2023-05-12T16:43:55.762Z,98167.62
2023-05-12T16:46:22.701Z,98159.97
2023-05-12T16:48:49.603Z,98172.47
2023-05-12T16:51:16.449Z,98168.62
2023-05-12T16:53:43.437Z,98168.72
2023-05-12T16:56:10.464Z,98166.69
2023-05-12T16:58:37.394Z,98169.97
2023-05-12T17:01:04.962Z,98170.16
2023-05-12T17:03:32.075Z,98176.41
2023-05-12T17:05:59.143Z,98168.72
2023-05-12T17:08:37.017Z,98168.97
2023-05-12T17:11:05.196Z,98176.41
2023-05-12T17:13:35.816Z,98177.66
2023-05-12T17:16:02.882Z,98173.38
2023-05-12T17:21:22.567Z,98179.13
2023-05-12T17:23:49.429Z,98183.09
2023-05-12T17:26:16.685Z,98170.91
2023-05-12T17:28:57.730Z,98175.25
2023-05-12T17:31:24.623Z,98166.75
2023-05-12T17:33:51.497Z,98178.75
2023-05-12T17:36:18.881Z,98177.50
2023-05-12T17:38:46.333Z,98183.50
2023-05-12T17:41:13.666Z,98193.34
2023-05-12T17:43:41.582Z,98192.66
2023-05-12T17:46:09.303Z,98189.31
2023-05-12T17:49:04.288Z,98196.53
2023-05-12T17:51:31.161Z,98203.75
2023-05-12T17:53:58.021Z,98199.75
2023-05-12T17:56:24.931Z,98201.16
2023-05-12T17:58:51.817Z,98203.94
2023-05-12T18:01:18.746Z,98208.59
2023-05-12T18:03:46.103Z,98197.16
2023-05-12T18:06:15.076Z,98199.59
2023-05-12T18:08:41.952Z,98210.78
2023-05-12T18:11:08.795Z,98212.03
2023-05-12T18:13:35.651Z,98208.38
2023-05-12T18:16:02.551Z,98210.19
2023-05-12T18:18:29.871Z,98216.38
2023-05-12T18:20:56.966Z,98217.78
2023-05-12T18:23:23.832Z,98210.59
2023-05-12T18:25:51.283Z,98214.56
2023-05-12T18:28:18.188Z,98224.22
2023-05-12T18:30:45.149Z,98224.72
2023-05-12T18:33:12.036Z,98222.31
2023-05-12T18:35:38.963Z,98229.16
2023-05-12T18:38:07.238Z,98235.19
2023-05-12T18:40:34.710Z,98236.78
2023-05-12T18:43:02.071Z,98236.25
2023-05-12T18:45:28.973Z,98249.25
2023-05-12T18:47:55.970Z,98250.16
2023-05-12T18:50:23.053Z,98257.00
2023-05-12T18:52:49.938Z,98250.47
2023-05-12T18:55:16.806Z,98245.81
2023-05-12T18:57:43.627Z,98255.34
2023-05-12T19:00:10.547Z,98260.09
2023-05-12T19:02:37.640Z,98275.38
2023-05-12T19:05:04.832Z,98272.13
2023-05-12T19:07:31.709Z,98275.12
2023-05-12T19:09:58.557Z,98275.81
2023-05-12T19:12:25.609Z,98289.62
2023-05-12T19:14:52.476Z,98280.78
2023-05-12T19:17:19.440Z,98289.88
2023-05-12T19:19:46.294Z,98282.38
2023-05-12T19:22:13.131Z,98289.78
2023-05-12T19:24:40.076Z,98286.41
2023-05-12T19:27:06.946Z,98287.41
2023-05-12T19:29:33.816Z,98286.34
2023-05-12T19:32:00.806Z,98289.22
2023-05-12T19:34:29.651Z,98286.34
2023-05-12T19:36:58.391Z,98282.47
2023-05-12T19:39:25.276Z,98284.06
2023-05-12T19:41:52.145Z,98281.72
2023-05-12T19:44:19.187Z,98290.53
2023-05-12T19:46:48.809Z,98282.16
2023-05-12T19:49:15.922Z,98289.50
2023-05-12T19:51:42.792Z,98291.63
2023-05-12T19:54:10.305Z,98290.47
2023-05-12T19:56:37.536Z,98294.06
2023-05-12T19:59:04.417Z,98294.75
2023-05-12T20:01:31.446Z,98290.97
2023-05-12T20:03:58.353Z,98301.13
2023-05-12T20:06:25.290Z,98301.25
2023-05-12T20:08:52.723Z,98298.94
2023-05-12T20:11:19.581Z,98299.88
2023-05-12T20:13:46.398Z,98294.50
2023-05-12T20:16:13.102Z,98294.81
2023-05-12T20:18:40.521Z,98306.38
2023-05-12T20:21:07.365Z,98299.91
2023-05-12T20:23:34.179Z,98298.12
2023-05-12T20:26:00.903Z,98302.66
2023-05-12T20:28:28.456Z,98297.06
2023-05-12T20:30:55.331Z,98289.66
2023-05-12T20:33:22.377Z,98295.25
2023-05-12T20:35:49.234Z,98284.66
2023-05-12T20:38:16.190Z,98294.97
2023-05-12T20:40:43.012Z,98294.31
2023-05-12T20:43:09.865Z,98293.13
2023-05-12T20:45:37.094Z,98290.41
2023-05-12T20:48:04.737Z,98302.22
2023-05-12T20:50:31.779Z,98292.09
2023-05-12T20:52:58.728Z,98297.75
2023-05-12T20:55:25.924Z,98296.94
2023-05-12T20:57:52.904Z,98303.00
2023-05-12T21:00:19.935Z,98292.03
2023-05-12T21:02:49.900Z,98286.44
2023-05-12T21:05:16.785Z,98305.50
2023-05-12T21:07:43.622Z,98310.53
2023-05-12T21:10:10.633Z,98303.91
2023-05-12T21:12:37.734Z,98302.09
2023-05-12T21:15:05.037Z,98321.78
2023-05-12T21:17:31.988Z,98314.88
2023-05-12T21:19:59.377Z,98315.19
2023-05-12T21:22:26.882Z,98309.81
2023-05-12T21:24:53.692Z,98318.56
2023-05-12T21:27:20.327Z,98321.31
2023-05-12T21:29:47.160Z,98308.03
2023-05-12T21:32:14.071Z,98313.53
2023-05-12T21:34:40.971Z,98312.03
2023-05-12T21:37:07.858Z,98319.97
2023-05-12T21:39:34.698Z,98322.91
2023-05-12T21:42:01.756Z,98318.75
2023-05-12T21:44:28.577Z,98323.59
2023-05-12T21:46:55.207Z,98328.06
2023-05-12T21:49:22.141Z,98323.28
2023-05-12T21:51:49.019Z,98326.50
2023-05-12T21:54:15.859Z,98317.81
2023-05-12T21:56:43.130Z,98326.53
2023-05-12T21:59:10.013Z,98324.00
2023-05-12T22:01:37.074Z,98323.78
2023-05-12T22:04:05.142Z,98330.66
2023-05-12T22:06:32.328Z,98316.75
2023-05-12T22:08:59.169Z,98320.41
2023-05-12T22:11:26.074Z,98323.72
2023-05-12T22:13:52.920Z,98324.28
2023-05-12T22:16:23.642Z,98314.69
2023-05-12T22:18:53.016Z,98329.28
2023-05-12T22:21:19.864Z,98320.56
2023-05-12T22:23:46.530Z,98326.66
2023-05-12T22:26:13.394Z,98326.16
2023-05-12T22:28:40.349Z,98317.53
2023-05-12T22:31:07.158Z,98326.06
2023-05-12T22:33:34.465Z,98326.38
2023-05-12T22:36:01.774Z,98329.47
2023-05-12T22:38:28.627Z,98324.69
2023-05-12T22:40:55.569Z,98327.03
2023-05-12T22:43:22.513Z,98307.00
2023-05-12T22:45:52.668Z,98319.84
2023-05-12T22:48:20.057Z,98317.06
2023-05-12T22:50:46.974Z,98324.75
2023-05-12T22:53:14.298Z,98321.47
2023-05-12T22:55:41.416Z,98320.44
2023-05-12T22:58:08.359Z,98309.78
2023-05-12T23:00:35.254Z,98314.97
2023-05-12T23:03:03.457Z,98308.47
2023-05-12T23:05:30.393Z,98311.97
2023-05-12T23:07:57.268Z,98308.53
2023-05-12T23:10:24.298Z,98309.59
2023-05-12T23:12:51.295Z,98315.72
2023-05-12T23:15:18.728Z,98312.53
2023-05-12T23:17:45.623Z,98304.69
2023-05-12T23:20:12.908Z,98301.19
2023-05-12T23:22:39.754Z,98300.94
2023-05-12T23:25:07.153Z,98297.81
2023-05-12T23:27:34.096Z,98299.47
2023-05-12T23:30:00.912Z,98303.34
2023-05-12T23:32:27.811Z,98293.44
2023-05-12T23:34:54.791Z,98297.31
2023-05-12T23:37:21.848Z,98302.63
2023-05-12T23:39:48.697Z,98298.16
2023-05-12T23:42:15.582Z,98293.06
2023-05-12T23:44:42.402Z,98295.50
2023-05-12T23:47:09.306Z,98296.28
2023-05-12T23:49:36.253Z,98289.94
2023-05-12T23:52:03.171Z,98288.50
2023-05-12T23:54:29.998Z,98290.69
2023-05-12T23:56:56.888Z,98286.56
2023-05-12T23:59:23.739Z,98289.94
